createdAt,value
2018-03-26T02:03:17.183Z,17.33
2018-03-26T02:05:45.784Z,18.73
2018-03-26T02:08:14.138Z,18.70
2018-03-26T02:10:41.663Z,19.73
2018-03-26T02:13:09.179Z,19.52
2018-03-26T02:15:36.971Z,18.87
2018-03-26T02:18:04.448Z,19.62
2018-03-26T02:20:32.187Z,19.23
2018-03-26T02:22:59.680Z,20.25
2018-03-26T02:25:27.549Z,20.55
2018-03-26T02:27:55.043Z,21.00
2018-03-26T02:30:22.541Z,19.75
2018-03-26T02:32:50.558Z,21.00
2018-03-26T02:35:18.891Z,20.90
2018-03-26T02:37:46.394Z,22.65
2018-03-26T02:40:14.653Z,22.08
2018-03-26T02:42:43.233Z,21.08
2018-03-26T02:45:10.719Z,21.33
2018-03-26T02:47:38.467Z,21.15
2018-03-26T02:50:05.965Z,20.73
2018-03-26T02:52:33.682Z,20.35
2018-03-26T02:55:01.956Z,19.77
2018-03-26T02:57:29.714Z,19.50
2018-03-26T02:59:57.993Z,19.25
2018-03-26T03:02:25.904Z,18.10
2018-03-26T03:04:53.470Z,18.02
2018-03-26T03:07:20.975Z,19.58
2018-03-26T03:09:49.604Z,18.20
2018-03-26T03:12:17.103Z,18.17
2018-03-26T03:14:44.590Z,18.50
2018-03-26T03:17:12.868Z,16.80
2018-03-26T03:19:41.141Z,17.40
2018-03-26T03:22:08.696Z,18.17
2018-03-26T03:24:37.465Z,17.37
2018-03-26T03:27:05.018Z,18.12
2018-03-26T03:29:32.523Z,17.75
2018-03-26T03:32:00.251Z,17.58
2018-03-26T03:34:28.078Z,17.75
2018-03-26T03:36:55.586Z,17.90
2018-03-26T03:39:23.850Z,17.73
2018-03-26T03:41:51.672Z,17.62
2018-03-26T03:44:19.354Z,18.15
2018-03-26T03:46:46.846Z,19.10
2018-03-26T03:49:15.425Z,18.48
2018-03-26T03:51:43.697Z,19.42
2018-03-26T03:54:11.179Z,18.23
2018-03-26T03:56:38.683Z,20.70
2018-03-26T03:59:06.172Z,22.00
2018-03-26T04:01:34.497Z,22.48
2018-03-26T04:04:02.408Z,22.23
2018-03-26T04:06:29.930Z,22.17
2018-03-26T04:08:57.454Z,23.67
2018-03-26T04:11:24.959Z,22.67
2018-03-26T04:13:52.442Z,26.48
2018-03-26T04:16:20.178Z,22.98
2018-03-26T04:18:47.743Z,23.27
2018-03-26T04:21:15.460Z,26.05
2018-03-26T04:23:43.202Z,27.13
2018-03-26T04:26:11.476Z,25.27
2018-03-26T04:28:39.967Z,23.80
2018-03-26T04:31:08.290Z,26.00
2018-03-26T04:33:36.045Z,24.67
2018-03-26T04:36:03.686Z,24.15
2018-03-26T04:38:31.195Z,24.63
2018-03-26T04:40:59.232Z,24.65
2018-03-26T04:43:26.737Z,24.58
2018-03-26T04:45:55.028Z,24.30
2018-03-26T04:48:23.283Z,24.37
2018-03-26T04:50:51.052Z,24.12
2018-03-26T04:53:18.553Z,25.95
2018-03-26T04:55:46.291Z,25.00
2018-03-26T04:58:14.636Z,25.02
2018-03-26T05:00:42.360Z,25.55
2018-03-26T05:03:09.879Z,24.02
2018-03-26T05:05:38.523Z,24.48
2018-03-26T05:08:06.021Z,23.42
2018-03-26T05:10:34.339Z,23.27
2018-03-26T05:13:01.928Z,24.58
2018-03-26T05:15:29.452Z,24.00
2018-03-26T05:17:56.996Z,25.08
2018-03-26T05:20:24.480Z,23.23
2018-03-26T05:22:52.204Z,24.45
2018-03-26T05:25:20.456Z,26.52
2018-03-26T05:27:48.399Z,24.90
2018-03-26T05:30:15.948Z,23.90
2018-03-26T05:32:43.462Z,25.42
2018-03-26T05:35:11.761Z,23.83
2018-03-26T05:37:39.675Z,24.20
2018-03-26T05:40:07.165Z,24.63
2018-03-26T05:42:34.703Z,22.90
2018-03-26T05:45:02.195Z,22.73
2018-03-26T05:47:29.697Z,22.35
2018-03-26T05:49:57.177Z,23.58
2018-03-26T05:52:25.671Z,24.57
2018-03-26T05:54:54.191Z,24.02
2018-03-26T05:57:21.706Z,24.60
2018-03-26T05:59:49.220Z,24.70
2018-03-26T06:02:16.982Z,23.98
2018-03-26T06:04:44.500Z,24.15
2018-03-26T06:07:12.752Z,24.37
2018-03-26T06:09:40.443Z,24.27
2018-03-26T06:12:07.946Z,24.75
2018-03-26T06:14:35.836Z,24.20
2018-03-26T06:17:15.330Z,25.27
2018-03-26T06:19:43.068Z,25.17
2018-03-26T06:22:10.858Z,23.00
2018-03-26T06:24:38.373Z,23.50
2018-03-26T06:27:06.116Z,24.50
2018-03-26T06:29:33.623Z,23.58
2018-03-26T06:32:01.380Z,24.43
2018-03-26T06:34:28.969Z,23.47
2018-03-26T06:37:11.155Z,24.80
2018-03-26T06:39:38.710Z,25.03
2018-03-26T06:42:06.235Z,25.80
2018-03-26T06:44:33.782Z,26.10
2018-03-26T06:47:01.430Z,26.13
2018-03-26T06:49:29.407Z,25.37
2018-03-26T06:51:57.042Z,27.90
2018-03-26T06:54:24.560Z,26.87
2018-03-26T06:56:57.569Z,28.67
2018-03-26T07:10:24.174Z,27.13
2018-03-26T07:12:52.123Z,27.43
2018-03-26T07:15:20.048Z,31.83
2018-03-26T07:17:47.556Z,26.50
2018-03-26T07:20:15.096Z,25.53
2018-03-26T07:22:42.935Z,23.80
2018-03-26T07:25:10.426Z,24.70
2018-03-26T07:27:38.006Z,24.93
2018-03-26T07:30:07.248Z,26.17
2018-03-26T07:32:35.199Z,24.67
2018-03-26T07:35:03.602Z,25.77
2018-03-26T07:37:31.099Z,25.87
2018-03-26T07:39:59.008Z,26.40
2018-03-26T07:42:26.539Z,26.60
2018-03-26T07:44:54.038Z,26.93
2018-03-26T07:47:21.761Z,27.00
2018-03-26T07:49:50.279Z,25.97
2018-03-26T07:52:17.762Z,26.90
2018-03-26T07:54:45.790Z,21.93
2018-03-26T07:57:14.219Z,26.67
2018-03-26T07:59:41.726Z,27.07
2018-03-26T08:02:10.019Z,25.77
2018-03-26T08:04:39.297Z,27.40
2018-03-26T08:07:07.716Z,28.20
2018-03-26T08:09:35.212Z,26.43
2018-03-26T08:12:02.923Z,28.30
2018-03-26T08:14:30.898Z,27.23
2018-03-26T08:16:58.816Z,26.30
2018-03-26T08:19:26.717Z,26.07
2018-03-26T08:21:54.275Z,27.03
2018-03-26T08:24:22.050Z,27.83
2018-03-26T08:26:49.604Z,27.20
2018-03-26T08:29:17.665Z,27.43
2018-03-26T08:31:45.170Z,26.63
2018-03-26T08:34:12.814Z,26.83
2018-03-26T08:36:40.890Z,25.03
2018-03-26T08:39:08.773Z,27.03
2018-03-26T08:41:36.300Z,26.83
2018-03-26T08:44:04.167Z,27.93
2018-03-26T08:46:32.011Z,28.37
2018-03-26T08:48:59.573Z,26.87
2018-03-26T08:51:27.637Z,27.23
2018-03-26T08:53:55.931Z,26.83
2018-03-26T08:56:23.778Z,26.77
2018-03-26T08:58:51.373Z,27.53
2018-03-26T09:01:19.414Z,26.60
2018-03-26T09:03:47.084Z,27.27
2018-03-26T09:06:15.376Z,27.37
2018-03-26T09:08:42.923Z,27.40
2018-03-26T09:11:10.642Z,27.17
2018-03-26T09:13:38.153Z,28.07
2018-03-26T09:16:05.750Z,26.60
2018-03-26T09:18:33.281Z,27.87
2018-03-26T09:21:00.803Z,27.40
2018-03-26T09:23:28.302Z,28.60
2018-03-26T09:25:56.337Z,27.73
2018-03-26T09:28:26.208Z,26.67
2018-03-26T09:30:53.839Z,26.97
2018-03-26T09:33:21.577Z,26.73
2018-03-26T09:35:49.564Z,26.60
2018-03-26T09:38:17.148Z,27.30
2018-03-26T09:40:44.729Z,27.83
2018-03-26T09:43:12.452Z,27.83
2018-03-26T09:45:40.249Z,26.93
2018-03-26T09:48:08.173Z,28.17
2018-03-26T09:50:35.693Z,27.03
2018-03-26T09:53:03.582Z,27.47
2018-03-26T09:55:31.869Z,28.27
2018-03-26T09:57:59.711Z,26.67
2018-03-26T10:00:33.042Z,28.30
2018-03-26T10:03:12.191Z,26.87
2018-03-26T10:05:44.775Z,27.77
2018-03-26T10:08:14.401Z,29.93
2018-03-26T10:10:41.894Z,28.37
2018-03-26T10:13:12.857Z,28.47
2018-03-26T10:15:40.694Z,28.67
2018-03-26T10:18:08.221Z,27.17
2018-03-26T10:20:36.079Z,28.53
2018-03-26T10:23:04.991Z,27.67
2018-03-26T10:25:33.036Z,29.90
2018-03-26T10:28:00.962Z,27.77
2018-03-26T10:30:29.107Z,29.40
2018-03-26T10:32:57.278Z,28.97
2018-03-26T10:35:25.418Z,28.43
2018-03-26T10:37:56.025Z,28.73
2018-03-26T10:40:23.703Z,26.00
2018-03-26T10:42:52.030Z,28.43
2018-03-26T10:45:19.676Z,27.50
2018-03-26T10:47:47.488Z,27.60
2018-03-26T10:50:15.754Z,28.07
2018-03-26T10:52:43.260Z,27.70
2018-03-26T10:55:11.207Z,27.90
2018-03-26T10:57:38.731Z,29.73
2018-03-26T11:00:06.265Z,27.70
2018-03-26T11:02:34.487Z,28.50
2018-03-26T11:05:02.970Z,28.47
2018-03-26T11:07:32.575Z,27.87
2018-03-26T11:10:01.162Z,28.27
2018-03-26T11:12:29.074Z,28.30
2018-03-26T11:14:56.595Z,32.93
2018-03-26T11:17:24.376Z,32.57
2018-03-26T11:19:51.856Z,31.00
2018-03-26T11:22:19.747Z,38.47
2018-03-26T11:24:47.246Z,28.97
2018-03-26T11:27:15.088Z,27.27
2018-03-26T11:29:43.426Z,28.23
2018-03-26T11:32:11.772Z,27.10
2018-03-26T11:34:39.425Z,28.60
2018-03-26T11:37:07.152Z,32.30
2018-03-26T11:39:34.644Z,29.30
2018-03-26T11:42:02.446Z,50.63
2018-03-26T11:44:31.266Z,29.23
2018-03-26T11:46:59.083Z,27.57
2018-03-26T11:49:26.624Z,27.00
2018-03-26T11:51:54.894Z,29.70
2018-03-26T11:54:23.246Z,28.13
2018-03-26T11:56:51.414Z,30.27
2018-03-26T11:59:27.992Z,27.67
2018-03-26T12:01:56.276Z,28.10
2018-03-26T12:04:24.718Z,28.80
2018-03-26T12:06:52.361Z,28.97
2018-03-26T12:09:19.964Z,29.17
2018-03-26T12:11:47.944Z,29.87
2018-03-26T12:14:15.719Z,33.22
2018-03-26T12:16:43.274Z,30.73
2018-03-26T12:19:11.274Z,29.17
2018-03-26T12:21:38.755Z,32.75
2018-03-26T12:24:19.669Z,29.53
2018-03-26T12:26:47.270Z,28.87
2018-03-26T12:29:26.834Z,29.00
2018-03-26T12:31:54.333Z,29.73
2018-03-26T12:34:34.486Z,30.73
2018-03-26T12:37:02.155Z,37.67
2018-03-26T12:39:29.670Z,30.97
2018-03-26T12:41:57.537Z,32.03
2018-03-26T12:44:37.111Z,29.57
2018-03-26T12:47:05.566Z,32.45
2018-03-26T12:49:33.425Z,30.80
2018-03-26T12:52:23.930Z,29.00
2018-03-26T12:54:51.420Z,28.53
2018-03-26T12:57:31.144Z,30.03
2018-03-26T12:59:58.665Z,29.03
2018-03-26T13:02:27.940Z,28.20
2018-03-26T13:04:55.460Z,28.27
2018-03-26T13:07:23.640Z,29.17
2018-03-26T13:09:51.145Z,27.33
2018-03-26T13:12:18.869Z,29.77
2018-03-26T13:14:46.860Z,30.37
2018-03-26T14:31:56.179Z,31.50
2018-03-26T14:34:23.680Z,31.77
2018-03-26T14:36:51.972Z,33.57
2018-03-26T14:39:19.524Z,33.97
2018-03-26T14:41:47.284Z,33.93
2018-03-26T14:44:16.485Z,33.33
2018-03-26T14:46:43.996Z,31.37
2018-03-26T14:49:13.533Z,33.07
2018-03-26T14:51:42.159Z,32.80
2018-03-26T14:54:10.743Z,32.23
2018-03-26T14:56:38.261Z,34.17
2018-03-26T14:59:05.757Z,32.30
2018-03-26T15:01:33.259Z,31.03
2018-03-26T15:04:01.555Z,32.27
2018-03-26T15:06:29.061Z,32.00
2018-03-26T15:08:57.105Z,32.87
2018-03-26T15:11:25.127Z,33.47
2018-03-26T15:13:53.405Z,33.07
2018-03-26T15:16:20.973Z,33.97
2018-03-26T15:18:48.850Z,33.50
2018-03-26T15:21:16.370Z,33.23
2018-03-26T15:23:44.507Z,35.90
2018-03-26T15:26:12.046Z,32.43
2018-03-26T15:28:39.929Z,33.47
2018-03-26T15:31:07.445Z,33.60
2018-03-26T15:33:34.962Z,31.90
2018-03-26T15:36:02.906Z,33.77
2018-03-26T15:38:31.194Z,32.73
2018-03-26T15:40:58.748Z,33.57
2018-03-26T15:43:26.336Z,32.50
2018-03-26T15:45:53.990Z,33.37
2018-03-26T15:48:21.871Z,33.47
2018-03-26T15:50:51.522Z,32.57
2018-03-26T15:53:20.328Z,32.40
2018-03-26T15:55:48.271Z,32.23
2018-03-26T15:58:16.142Z,33.60
2018-03-26T16:00:43.927Z,33.80
2018-03-26T16:03:17.399Z,33.43
2018-03-26T16:05:44.971Z,33.67
2018-03-26T16:08:13.872Z,33.37
2018-03-26T16:10:42.006Z,35.40
2018-03-26T16:13:10.254Z,33.43
2018-03-26T16:15:37.769Z,35.47
2018-03-26T16:18:05.325Z,38.97
2018-03-26T16:20:32.845Z,38.97
2018-03-26T16:23:00.373Z,63.10
2018-03-26T16:25:28.140Z,40.23
2018-03-26T16:27:55.694Z,36.17
2018-03-26T16:30:23.217Z,32.77
2018-03-26T16:32:51.504Z,32.83
2018-03-26T16:35:19.641Z,33.63
2018-03-26T16:37:48.643Z,43.27
2018-03-26T16:40:17.045Z,41.50
2018-03-26T16:42:44.788Z,34.00
2018-03-26T16:45:13.091Z,34.10
2018-03-26T16:47:40.616Z,37.13
2018-03-26T16:50:08.268Z,33.07
2018-03-26T16:52:37.344Z,32.17
2018-03-26T16:55:05.285Z,34.77
2018-03-26T16:57:32.962Z,33.53
2018-03-26T17:00:01.442Z,34.17
2018-03-26T17:02:29.278Z,35.30
2018-03-26T17:04:56.806Z,35.93
2018-03-26T17:07:24.911Z,34.00
2018-03-26T17:09:52.758Z,34.37
2018-03-26T17:12:20.647Z,34.60
2018-03-26T17:14:48.167Z,36.10
2018-03-26T17:17:17.060Z,37.93
2018-03-26T17:19:45.847Z,36.77
2018-03-26T17:22:17.973Z,36.10
2018-03-26T17:25:01.527Z,40.77
2018-03-26T17:27:32.345Z,39.80
2018-03-26T17:30:04.678Z,38.30
2018-03-26T17:32:36.231Z,48.07
2018-03-26T17:35:05.893Z,46.33
2018-03-26T17:37:33.810Z,46.03
2018-03-26T17:40:01.808Z,54.63
2018-03-26T17:42:29.307Z,44.13
2018-03-26T17:44:57.112Z,40.57
2018-03-26T17:47:24.613Z,40.40
2018-03-26T17:49:52.723Z,37.17
2018-03-26T17:52:21.638Z,35.67
2018-03-26T17:54:49.783Z,35.20
2018-03-26T17:57:19.555Z,36.80
2018-03-26T17:59:47.204Z,35.57
2018-03-26T18:02:15.344Z,34.03
2018-03-26T18:04:46.370Z,34.90
2018-03-26T18:07:14.436Z,35.63
2018-03-26T18:09:50.463Z,34.33
2018-03-26T18:12:18.956Z,34.27
2018-03-26T18:14:47.998Z,34.93
2018-03-26T18:17:16.156Z,35.40
2018-03-26T18:19:43.691Z,34.47
2018-03-26T18:22:11.811Z,34.87
2018-03-26T18:24:40.080Z,35.37
2018-03-26T18:27:08.144Z,34.97
2018-03-26T18:29:37.378Z,34.63
2018-03-26T18:32:05.934Z,30.73
2018-03-26T18:34:33.465Z,25.13
2018-03-26T18:37:06.171Z,23.63
2018-03-26T18:39:33.763Z,24.83
2018-03-26T18:42:01.296Z,24.77
2018-03-26T18:44:35.990Z,23.17
2018-03-26T18:47:04.629Z,23.00
2018-03-26T18:49:32.134Z,25.07
2018-03-26T18:52:00.190Z,24.27
2018-03-26T18:54:27.720Z,24.07
2018-03-26T18:56:56.908Z,23.57
2018-03-26T18:59:26.566Z,27.97
2018-03-26T19:01:55.668Z,27.70
2018-03-26T19:04:23.754Z,27.67
2018-03-26T19:06:53.664Z,28.90
2018-03-26T19:09:21.224Z,28.50
2018-03-26T19:11:49.394Z,26.97
2018-03-26T19:14:16.935Z,26.30
2018-03-26T19:16:45.573Z,27.17
2018-03-26T19:19:13.089Z,25.43
2018-03-26T19:21:41.689Z,25.40
2018-03-26T19:24:09.182Z,24.13
2018-03-26T19:26:36.679Z,24.77
2018-03-26T19:29:04.298Z,25.07
2018-03-26T19:31:32.001Z,24.70
2018-03-26T19:34:00.093Z,24.53
2018-03-26T19:36:29.049Z,25.77
2018-03-26T19:38:56.771Z,26.67
2018-03-26T19:41:24.370Z,25.93
2018-03-26T19:43:51.995Z,27.90
2018-03-26T19:46:19.626Z,25.27
2018-03-26T19:48:47.534Z,25.20
2018-03-26T19:51:15.023Z,27.67
2018-03-26T19:53:42.842Z,26.90
2018-03-26T19:56:10.352Z,25.53
2018-03-26T19:58:37.910Z,26.23
2018-03-26T20:01:05.423Z,26.63
2018-03-26T20:03:32.968Z,27.10
2018-03-26T20:06:01.364Z,27.00
2018-03-26T20:08:29.822Z,28.27
2018-03-26T20:10:57.322Z,28.30
2018-03-26T20:13:24.826Z,29.70
2018-03-26T20:15:52.354Z,28.23
2018-03-26T20:18:19.929Z,30.73
2018-03-26T20:20:47.457Z,31.00
2018-03-26T20:23:15.480Z,30.80
2018-03-26T20:25:42.998Z,32.10
2018-03-26T20:28:11.249Z,32.17
2018-03-26T20:30:39.193Z,32.60
2018-03-26T20:33:06.724Z,34.03
2018-03-26T20:35:34.630Z,32.73
2018-03-26T20:38:02.295Z,34.40
2018-03-26T20:40:29.788Z,34.50
2018-03-26T20:42:57.582Z,35.00
2018-03-26T20:45:25.255Z,36.13
2018-03-26T20:47:52.749Z,37.20
2018-03-26T20:50:20.253Z,37.43
2018-03-26T20:52:48.132Z,36.70
2018-03-26T20:55:15.626Z,37.93
2018-03-26T20:57:43.462Z,37.13
2018-03-26T21:00:11.109Z,38.97
2018-03-26T21:02:38.670Z,38.27
2018-03-26T21:05:07.544Z,37.43
2018-03-26T21:07:35.056Z,38.67
2018-03-26T21:10:03.307Z,36.47
2018-03-26T21:12:30.840Z,37.63
2018-03-26T21:14:59.429Z,38.10
2018-03-26T21:17:26.931Z,39.87
2018-03-26T21:19:54.623Z,38.37
2018-03-26T21:22:22.675Z,40.50
2018-03-26T21:24:50.198Z,38.73
2018-03-26T21:27:18.062Z,40.60
2018-03-26T21:29:45.583Z,40.27
2018-03-26T21:32:13.110Z,40.57
2018-03-26T21:34:40.626Z,40.47
2018-03-26T21:37:08.142Z,40.60
2018-03-26T21:39:35.655Z,42.30
2018-03-26T21:42:03.613Z,41.93
2018-03-26T21:44:31.178Z,42.07
2018-03-26T21:46:59.339Z,41.60
2018-03-26T21:49:27.035Z,43.50
2018-03-26T21:51:54.549Z,38.37
2018-03-26T21:54:22.568Z,43.90
2018-03-26T21:56:50.092Z,43.13
2018-03-26T21:59:17.750Z,42.10
2018-03-26T22:01:45.300Z,42.10
2018-03-26T22:04:13.187Z,41.67
2018-03-26T22:06:40.774Z,40.80
2018-03-26T22:09:08.528Z,40.37
2018-03-26T22:11:36.028Z,41.50
2018-03-26T22:14:03.556Z,39.47
2018-03-26T22:16:31.386Z,38.03
2018-03-26T22:18:58.888Z,40.27
2018-03-26T22:21:26.918Z,37.43
2018-03-26T22:23:54.405Z,37.77
2018-03-26T22:26:21.904Z,38.50
2018-03-26T22:28:49.690Z,38.17
2018-03-26T22:31:17.631Z,37.60
2018-03-26T22:33:45.178Z,38.00
2018-03-26T22:36:12.657Z,35.90
2018-03-26T22:38:40.183Z,38.23
2018-03-26T22:41:07.698Z,38.63
2018-03-26T22:43:35.246Z,36.63
2018-03-26T22:46:03.527Z,39.07
2018-03-26T22:48:31.088Z,37.70
2018-03-26T22:50:58.771Z,39.00
2018-03-26T22:53:26.284Z,40.10
2018-03-26T22:55:53.770Z,41.23
2018-03-26T22:58:21.635Z,41.57
